sensor_id;sensor_type;location;lat;lon;timestamp;P1;durP1;ratioP1;P2;durP2;ratioP2
8102;SDS011;4094;49.948;11.574;2022-12-29T00:01:09;8.20;;;7.60;;
8102;SDS011;4094;49.948;11.574;2022-12-29T00:03:39;7.73;;;7.33;;
8102;SDS011;4094;49.948;11.574;2022-12-29T00:06:08;8.60;;;8.10;;
8102;SDS011;4094;49.948;11.574;2022-12-29T00:08:39;8.17;;;7.60;;
8102;SDS011;4094;49.948;11.574;2022-12-29T00:11:10;8.53;;;7.90;;
8102;SDS011;4094;49.948;11.574;2022-12-29T00:13:40;7.47;;;7.07;;
8102;SDS011;4094;49.948;11.574;2022-12-29T00:16:27;8.03;;;7.43;;
8102;SDS011;4094;49.948;11.574;2022-12-29T00:18:57;7.97;;;7.47;;
8102;SDS011;4094;49.948;11.574;2022-12-29T00:21:27;8.70;;;7.90;;
8102;SDS011;4094;49.948;11.574;2022-12-29T00:24:15;8.03;;;7.53;;
8102;SDS011;4094;49.948;11.574;2022-12-29T00:27:13;7.90;;;7.50;;
8102;SDS011;4094;49.948;11.574;2022-12-29T00:30:01;8.00;;;7.50;;
8102;SDS011;4094;49.948;11.574;2022-12-29T00:32:53;7.70;;;7.30;;
8102;SDS011;4094;49.948;11.574;2022-12-29T00:35:41;8.00;;;7.57;;
8102;SDS011;4094;49.948;11.574;2022-12-29T00:38:14;7.57;;;7.17;;
8102;SDS011;4094;49.948;11.574;2022-12-29T00:41:00;8.00;;;7.50;;
8102;SDS011;4094;49.948;11.574;2022-12-29T00:43:48;7.83;;;7.33;;
8102;SDS011;4094;49.948;11.574;2022-12-29T00:46:37;7.80;;;7.40;;
8102;SDS011;4094;49.948;11.574;2022-12-29T00:49:09;7.07;;;6.67;;
8102;SDS011;4094;49.948;11.574;2022-12-29T00:51:57;8.07;;;7.57;;
8102;SDS011;4094;49.948;11.574;2022-12-29T00:54:28;7.93;;;7.43;;
8102;SDS011;4094;49.948;11.574;2022-12-29T00:56:59;8.10;;;7.60;;
8102;SDS011;4094;49.948;11.574;2022-12-29T00:59:31;7.17;;;6.77;;
8102;SDS011;4094;49.948;11.574;2022-12-29T01:02:00;7.43;;;7.03;;
8102;SDS011;4094;49.948;11.574;2022-12-29T01:04:29;7.70;;;7.30;;
8102;SDS011;4094;49.948;11.574;2022-12-29T01:06:59;7.17;;;6.77;;
8102;SDS011;4094;49.948;11.574;2022-12-29T01:09:31;8.17;;;7.70;;
8102;SDS011;4094;49.948;11.574;2022-12-29T01:12:18;7.67;;;7.27;;
8102;SDS011;4094;49.948;11.574;2022-12-29T01:15:11;7.53;;;7.03;;
8102;SDS011;4094;49.948;11.574;2022-12-29T01:17:41;7.53;;;7.10;;
8102;SDS011;4094;49.948;11.574;2022-12-29T01:20:12;7.73;;;7.33;;
8102;SDS011;4094;49.948;11.574;2022-12-29T01:22:41;7.83;;;7.33;;
8102;SDS011;4094;49.948;11.574;2022-12-29T01:25:11;7.87;;;7.37;;
8102;SDS011;4094;49.948;11.574;2022-12-29T01:27:40;7.90;;;7.50;;
8102;SDS011;4094;49.948;11.574;2022-12-29T01:30:11;7.40;;;6.90;;
8102;SDS011;4094;49.948;11.574;2022-12-29T01:32:40;7.57;;;7.07;;
8102;SDS011;4094;49.948;11.574;2022-12-29T01:35:09;7.87;;;7.37;;
8102;SDS011;4094;49.948;11.574;2022-12-29T01:37:38;8.37;;;7.87;;
8102;SDS011;4094;49.948;11.574;2022-12-29T01:40:08;7.67;;;7.20;;
8102;SDS011;4094;49.948;11.574;2022-12-29T01:42:38;8.30;;;7.80;;
8102;SDS011;4094;49.948;11.574;2022-12-29T01:45:08;8.00;;;7.50;;
8102;SDS011;4094;49.948;11.574;2022-12-29T01:47:41;7.97;;;7.40;;
8102;SDS011;4094;49.948;11.574;2022-12-29T01:50:13;8.20;;;7.70;;
8102;SDS011;4094;49.948;11.574;2022-12-29T01:52:47;8.00;;;7.53;;
8102;SDS011;4094;49.948;11.574;2022-12-29T01:55:22;7.70;;;7.23;;
8102;SDS011;4094;49.948;11.574;2022-12-29T01:57:52;7.77;;;7.37;;
8102;SDS011;4094;49.948;11.574;2022-12-29T02:00:26;8.43;;;7.83;;
8102;SDS011;4094;49.948;11.574;2022-12-29T02:02:55;7.83;;;7.33;;
8102;SDS011;4094;49.948;11.574;2022-12-29T02:05:25;6.80;;;6.40;;
8102;SDS011;4094;49.948;11.574;2022-12-29T02:07:57;7.20;;;6.80;;
8102;SDS011;4094;49.948;11.574;2022-12-29T02:10:27;7.57;;;7.17;;
8102;SDS011;4094;49.948;11.574;2022-12-29T02:12:58;7.80;;;7.30;;
8102;SDS011;4094;49.948;11.574;2022-12-29T02:15:31;7.20;;;6.80;;
8102;SDS011;4094;49.948;11.574;2022-12-29T02:18:10;7.90;;;7.40;;
8102;SDS011;4094;49.948;11.574;2022-12-29T02:24:04;6.77;;;6.40;;
8102;SDS011;4094;49.948;11.574;2022-12-29T02:26:49;7.50;;;7.10;;
8102;SDS011;4094;49.948;11.574;2022-12-29T02:29:49;7.90;;;7.47;;
8102;SDS011;4094;49.948;11.574;2022-12-29T02:32:34;7.30;;;6.90;;
8102;SDS011;4094;49.948;11.574;2022-12-29T02:35:09;7.30;;;6.90;;
8102;SDS011;4094;49.948;11.574;2022-12-29T02:37:47;7.43;;;6.83;;
8102;SDS011;4094;49.948;11.574;2022-12-29T02:40:26;6.77;;;6.37;;
8102;SDS011;4094;49.948;11.574;2022-12-29T02:43:04;7.10;;;6.60;;
8102;SDS011;4094;49.948;11.574;2022-12-29T02:45:45;7.13;;;6.50;;
8102;SDS011;4094;49.948;11.574;2022-12-29T02:48:24;7.40;;;6.90;;
8102;SDS011;4094;49.948;11.574;2022-12-29T02:50:57;7.10;;;6.70;;
8102;SDS011;4094;49.948;11.574;2022-12-29T02:53:30;6.63;;;6.33;;
8102;SDS011;4094;49.948;11.574;2022-12-29T02:56:20;7.20;;;6.70;;
8102;SDS011;4094;49.948;11.574;2022-12-29T02:58:49;7.70;;;7.03;;
8102;SDS011;4094;49.948;11.574;2022-12-29T03:01:23;7.13;;;6.73;;
8102;SDS011;4094;49.948;11.574;2022-12-29T03:04:06;7.17;;;6.67;;
8102;SDS011;4094;49.948;11.574;2022-12-29T03:06:48;7.10;;;6.60;;
8102;SDS011;4094;49.948;11.574;2022-12-29T03:09:26;7.50;;;7.00;;
8102;SDS011;4094;49.948;11.574;2022-12-29T03:12:04;7.07;;;6.67;;
8102;SDS011;4094;49.948;11.574;2022-12-29T03:14:45;6.73;;;6.27;;
8102;SDS011;4094;49.948;11.574;2022-12-29T03:17:40;6.90;;;6.50;;
8102;SDS011;4094;49.948;11.574;2022-12-29T03:20:18;6.80;;;6.40;;
8102;SDS011;4094;49.948;11.574;2022-12-29T03:22:56;7.00;;;6.50;;
8102;SDS011;4094;49.948;11.574;2022-12-29T03:25:33;6.70;;;6.30;;
8102;SDS011;4094;49.948;11.574;2022-12-29T03:28:10;7.00;;;6.57;;
8102;SDS011;4094;49.948;11.574;2022-12-29T03:30:46;6.90;;;6.40;;
8102;SDS011;4094;49.948;11.574;2022-12-29T03:33:18;6.60;;;6.10;;
8102;SDS011;4094;49.948;11.574;2022-12-29T03:35:52;6.93;;;6.53;;
8102;SDS011;4094;49.948;11.574;2022-12-29T03:38:30;6.60;;;6.20;;
8102;SDS011;4094;49.948;11.574;2022-12-29T03:41:06;6.37;;;6.03;;
8102;SDS011;4094;49.948;11.574;2022-12-29T03:43:40;6.30;;;5.83;;
8102;SDS011;4094;49.948;11.574;2022-12-29T03:46:09;6.83;;;6.43;;
8102;SDS011;4094;49.948;11.574;2022-12-29T03:48:41;6.80;;;6.40;;
8102;SDS011;4094;49.948;11.574;2022-12-29T03:51:11;7.03;;;6.53;;
8102;SDS011;4094;49.948;11.574;2022-12-29T03:53:41;6.97;;;6.57;;
8102;SDS011;4094;49.948;11.574;2022-12-29T03:56:10;6.83;;;6.43;;
8102;SDS011;4094;49.948;11.574;2022-12-29T03:58:39;6.70;;;6.30;;
8102;SDS011;4094;49.948;11.574;2022-12-29T04:01:15;6.73;;;6.23;;
8102;SDS011;4094;49.948;11.574;2022-12-29T04:03:45;7.20;;;6.70;;
8102;SDS011;4094;49.948;11.574;2022-12-29T04:06:15;6.90;;;6.50;;
8102;SDS011;4094;49.948;11.574;2022-12-29T04:08:49;6.70;;;6.30;;
8102;SDS011;4094;49.948;11.574;2022-12-29T04:11:18;6.90;;;6.50;;
8102;SDS011;4094;49.948;11.574;2022-12-29T04:13:47;6.80;;;6.40;;
8102;SDS011;4094;49.948;11.574;2022-12-29T04:16:19;6.83;;;6.43;;
8102;SDS011;4094;49.948;11.574;2022-12-29T04:18:48;8.73;;;7.07;;
8102;SDS011;4094;49.948;11.574;2022-12-29T04:21:19;6.57;;;6.07;;
8102;SDS011;4094;49.948;11.574;2022-12-29T04:23:48;6.60;;;6.20;;
8102;SDS011;4094;49.948;11.574;2022-12-29T04:26:17;6.87;;;6.30;;
8102;SDS011;4094;49.948;11.574;2022-12-29T04:28:54;6.53;;;6.23;;
8102;SDS011;4094;49.948;11.574;2022-12-29T04:31:41;6.07;;;5.67;;
8102;SDS011;4094;49.948;11.574;2022-12-29T04:34:11;6.33;;;6.00;;
8102;SDS011;4094;49.948;11.574;2022-12-29T04:36:42;6.70;;;6.30;;
8102;SDS011;4094;49.948;11.574;2022-12-29T04:39:12;6.40;;;6.00;;
8102;SDS011;4094;49.948;11.574;2022-12-29T04:41:42;6.67;;;6.20;;
8102;SDS011;4094;49.948;11.574;2022-12-29T04:44:16;6.50;;;6.03;;
8102;SDS011;4094;49.948;11.574;2022-12-29T04:47:05;6.80;;;6.40;;
8102;SDS011;4094;49.948;11.574;2022-12-29T04:49:50;6.70;;;6.30;;
8102;SDS011;4094;49.948;11.574;2022-12-29T04:52:39;6.30;;;5.90;;
8102;SDS011;4094;49.948;11.574;2022-12-29T04:55:10;6.77;;;6.37;;
8102;SDS011;4094;49.948;11.574;2022-12-29T04:57:40;6.27;;;5.97;;
8102;SDS011;4094;49.948;11.574;2022-12-29T05:00:13;6.37;;;5.97;;
8102;SDS011;4094;49.948;11.574;2022-12-29T05:02:45;6.90;;;6.50;;
8102;SDS011;4094;49.948;11.574;2022-12-29T05:05:15;6.63;;;6.13;;
8102;SDS011;4094;49.948;11.574;2022-12-29T05:07:50;6.47;;;6.07;;
8102;SDS011;4094;49.948;11.574;2022-12-29T05:10:19;6.50;;;6.10;;
8102;SDS011;4094;49.948;11.574;2022-12-29T05:12:51;6.67;;;6.27;;
8102;SDS011;4094;49.948;11.574;2022-12-29T05:15:20;6.83;;;6.47;;
8102;SDS011;4094;49.948;11.574;2022-12-29T05:17:50;6.60;;;6.20;;
8102;SDS011;4094;49.948;11.574;2022-12-29T05:20:19;6.63;;;6.23;;
8102;SDS011;4094;49.948;11.574;2022-12-29T05:22:50;7.60;;;7.03;;
8102;SDS011;4094;49.948;11.574;2022-12-29T05:25:19;6.80;;;6.23;;
8102;SDS011;4094;49.948;11.574;2022-12-29T05:28:06;7.20;;;6.70;;
8102;SDS011;4094;49.948;11.574;2022-12-29T05:30:47;6.93;;;6.43;;
8102;SDS011;4094;49.948;11.574;2022-12-29T05:33:18;6.83;;;6.43;;
8102;SDS011;4094;49.948;11.574;2022-12-29T05:35:49;7.10;;;6.70;;
8102;SDS011;4094;49.948;11.574;2022-12-29T05:38:21;7.50;;;7.00;;
8102;SDS011;4094;49.948;11.574;2022-12-29T05:40:50;6.73;;;6.23;;
8102;SDS011;4094;49.948;11.574;2022-12-29T05:43:38;7.47;;;6.97;;
8102;SDS011;4094;49.948;11.574;2022-12-29T05:46:27;7.77;;;7.27;;
8102;SDS011;4094;49.948;11.574;2022-12-29T05:49:25;7.97;;;7.47;;
8102;SDS011;4094;49.948;11.574;2022-12-29T05:52:13;8.07;;;7.57;;
8102;SDS011;4094;49.948;11.574;2022-12-29T05:54:43;7.63;;;7.13;;
8102;SDS011;4094;49.948;11.574;2022-12-29T05:57:16;7.47;;;6.87;;
8102;SDS011;4094;49.948;11.574;2022-12-29T05:59:50;7.97;;;7.37;;
8102;SDS011;4094;49.948;11.574;2022-12-29T06:02:20;7.10;;;6.70;;
8102;SDS011;4094;49.948;11.574;2022-12-29T06:04:49;8.03;;;7.53;;
8102;SDS011;4094;49.948;11.574;2022-12-29T06:07:18;7.80;;;7.30;;
8102;SDS011;4094;49.948;11.574;2022-12-29T06:09:49;7.93;;;7.27;;
8102;SDS011;4094;49.948;11.574;2022-12-29T06:12:19;7.77;;;7.27;;
8102;SDS011;4094;49.948;11.574;2022-12-29T06:14:50;8.10;;;7.60;;
8102;SDS011;4094;49.948;11.574;2022-12-29T06:17:19;7.40;;;7.00;;
8102;SDS011;4094;49.948;11.574;2022-12-29T06:19:50;8.17;;;7.57;;
8102;SDS011;4094;49.948;11.574;2022-12-29T06:22:20;8.00;;;7.50;;
8102;SDS011;4094;49.948;11.574;2022-12-29T06:24:50;7.93;;;7.43;;
8102;SDS011;4094;49.948;11.574;2022-12-29T06:27:19;8.80;;;8.20;;
8102;SDS011;4094;49.948;11.574;2022-12-29T06:29:50;8.40;;;7.90;;
8102;SDS011;4094;49.948;11.574;2022-12-29T06:32:20;8.00;;;7.50;;
8102;SDS011;4094;49.948;11.574;2022-12-29T06:34:52;8.40;;;7.60;;
8102;SDS011;4094;49.948;11.574;2022-12-29T06:37:21;7.53;;;7.13;;
8102;SDS011;4094;49.948;11.574;2022-12-29T06:39:51;8.57;;;7.97;;
8102;SDS011;4094;49.948;11.574;2022-12-29T06:42:21;7.63;;;7.23;;
8102;SDS011;4094;49.948;11.574;2022-12-29T06:45:06;7.90;;;7.47;;
8102;SDS011;4094;49.948;11.574;2022-12-29T06:47:35;7.97;;;7.47;;
8102;SDS011;4094;49.948;11.574;2022-12-29T06:50:05;7.63;;;7.23;;
8102;SDS011;4094;49.948;11.574;2022-12-29T06:52:34;7.20;;;6.80;;
8102;SDS011;4094;49.948;11.574;2022-12-29T06:55:05;7.90;;;7.40;;
8102;SDS011;4094;49.948;11.574;2022-12-29T06:57:35;7.70;;;7.20;;
8102;SDS011;4094;49.948;11.574;2022-12-29T07:00:05;7.93;;;7.40;;
8102;SDS011;4094;49.948;11.574;2022-12-29T07:02:35;7.40;;;7.00;;
8102;SDS011;4094;49.948;11.574;2022-12-29T07:05:05;7.77;;;7.07;;
8102;SDS011;4094;49.948;11.574;2022-12-29T07:07:34;7.63;;;7.13;;
8102;SDS011;4094;49.948;11.574;2022-12-29T07:10:05;7.47;;;7.00;;
8102;SDS011;4094;49.948;11.574;2022-12-29T07:12:35;7.53;;;7.10;;
8102;SDS011;4094;49.948;11.574;2022-12-29T07:15:04;7.57;;;7.07;;
8102;SDS011;4094;49.948;11.574;2022-12-29T07:17:34;7.57;;;7.17;;
8102;SDS011;4094;49.948;11.574;2022-12-29T07:20:04;6.97;;;6.43;;
8102;SDS011;4094;49.948;11.574;2022-12-29T07:22:34;7.53;;;7.03;;
8102;SDS011;4094;49.948;11.574;2022-12-29T07:25:04;7.17;;;6.67;;
8102;SDS011;4094;49.948;11.574;2022-12-29T07:27:35;7.47;;;6.97;;
8102;SDS011;4094;49.948;11.574;2022-12-29T07:30:04;8.00;;;7.30;;
8102;SDS011;4094;49.948;11.574;2022-12-29T07:32:33;8.07;;;7.57;;
8102;SDS011;4094;49.948;11.574;2022-12-29T07:35:03;8.20;;;7.60;;
8102;SDS011;4094;49.948;11.574;2022-12-29T07:37:33;8.50;;;7.90;;
8102;SDS011;4094;49.948;11.574;2022-12-29T07:40:03;7.70;;;7.20;;
8102;SDS011;4094;49.948;11.574;2022-12-29T07:42:35;8.13;;;7.63;;
8102;SDS011;4094;49.948;11.574;2022-12-29T07:45:07;7.93;;;7.43;;
8102;SDS011;4094;49.948;11.574;2022-12-29T07:48:07;7.73;;;7.33;;
8102;SDS011;4094;49.948;11.574;2022-12-29T07:50:37;8.13;;;7.63;;
8102;SDS011;4094;49.948;11.574;2022-12-29T07:53:06;8.43;;;7.83;;
8102;SDS011;4094;49.948;11.574;2022-12-29T07:55:38;8.23;;;7.67;;
8102;SDS011;4094;49.948;11.574;2022-12-29T07:58:10;8.37;;;7.87;;
8102;SDS011;4094;49.948;11.574;2022-12-29T08:00:38;7.87;;;7.37;;
8102;SDS011;4094;49.948;11.574;2022-12-29T08:03:08;7.80;;;7.30;;
8102;SDS011;4094;49.948;11.574;2022-12-29T08:05:37;7.80;;;7.37;;
8102;SDS011;4094;49.948;11.574;2022-12-29T08:08:06;8.20;;;7.70;;
8102;SDS011;4094;49.948;11.574;2022-12-29T08:10:36;7.57;;;7.07;;
8102;SDS011;4094;49.948;11.574;2022-12-29T08:13:05;8.00;;;7.50;;
8102;SDS011;4094;49.948;11.574;2022-12-29T08:15:34;8.27;;;7.47;;
8102;SDS011;4094;49.948;11.574;2022-12-29T08:18:05;7.87;;;7.37;;
8102;SDS011;4094;49.948;11.574;2022-12-29T08:20:34;7.87;;;7.37;;
8102;SDS011;4094;49.948;11.574;2022-12-29T08:23:04;7.87;;;7.37;;
8102;SDS011;4094;49.948;11.574;2022-12-29T08:25:33;8.30;;;7.80;;
8102;SDS011;4094;49.948;11.574;2022-12-29T08:28:03;7.70;;;7.20;;
8102;SDS011;4094;49.948;11.574;2022-12-29T08:30:33;7.93;;;7.37;;
8102;SDS011;4094;49.948;11.574;2022-12-29T08:33:02;7.43;;;6.93;;
8102;SDS011;4094;49.948;11.574;2022-12-29T08:35:31;8.23;;;7.63;;
8102;SDS011;4094;49.948;11.574;2022-12-29T08:38:01;7.93;;;7.33;;
8102;SDS011;4094;49.948;11.574;2022-12-29T08:40:30;7.57;;;7.03;;
8102;SDS011;4094;49.948;11.574;2022-12-29T08:43:00;7.77;;;7.27;;
8102;SDS011;4094;49.948;11.574;2022-12-29T08:45:31;8.03;;;7.50;;
8102;SDS011;4094;49.948;11.574;2022-12-29T08:48:00;8.50;;;7.73;;
8102;SDS011;4094;49.948;11.574;2022-12-29T08:50:29;7.27;;;6.87;;
8102;SDS011;4094;49.948;11.574;2022-12-29T08:52:58;7.40;;;7.00;;
8102;SDS011;4094;49.948;11.574;2022-12-29T08:55:27;7.73;;;7.10;;
8102;SDS011;4094;49.948;11.574;2022-12-29T08:57:57;7.50;;;7.00;;
8102;SDS011;4094;49.948;11.574;2022-12-29T09:00:26;6.97;;;6.53;;
8102;SDS011;4094;49.948;11.574;2022-12-29T09:02:58;8.00;;;7.60;;
8102;SDS011;4094;49.948;11.574;2022-12-29T09:05:27;6.97;;;6.57;;
8102;SDS011;4094;49.948;11.574;2022-12-29T09:07:56;7.50;;;7.03;;
8102;SDS011;4094;49.948;11.574;2022-12-29T09:10:26;7.47;;;6.97;;
8102;SDS011;4094;49.948;11.574;2022-12-29T09:12:55;7.37;;;6.87;;
8102;SDS011;4094;49.948;11.574;2022-12-29T09:15:24;6.67;;;6.27;;
8102;SDS011;4094;49.948;11.574;2022-12-29T09:17:53;7.27;;;6.77;;
8102;SDS011;4094;49.948;11.574;2022-12-29T09:20:24;6.67;;;6.17;;
8102;SDS011;4094;49.948;11.574;2022-12-29T09:22:55;7.07;;;6.57;;
8102;SDS011;4094;49.948;11.574;2022-12-29T09:25:24;6.80;;;6.20;;
8102;SDS011;4094;49.948;11.574;2022-12-29T09:27:54;6.90;;;6.40;;
8102;SDS011;4094;49.948;11.574;2022-12-29T09:30:23;6.47;;;6.07;;
8102;SDS011;4094;49.948;11.574;2022-12-29T09:32:53;6.07;;;5.77;;
8102;SDS011;4094;49.948;11.574;2022-12-29T09:35:23;6.47;;;6.07;;
8102;SDS011;4094;49.948;11.574;2022-12-29T09:37:53;6.23;;;5.87;;
8102;SDS011;4094;49.948;11.574;2022-12-29T09:40:24;6.77;;;6.27;;
8102;SDS011;4094;49.948;11.574;2022-12-29T09:45:52;6.47;;;6.07;;
8102;SDS011;4094;49.948;11.574;2022-12-29T09:48:27;6.17;;;5.77;;
8102;SDS011;4094;49.948;11.574;2022-12-29T09:51:02;6.00;;;5.70;;
8102;SDS011;4094;49.948;11.574;2022-12-29T09:53:35;5.63;;;5.23;;
8102;SDS011;4094;49.948;11.574;2022-12-29T09:56:07;6.47;;;6.07;;
8102;SDS011;4094;49.948;11.574;2022-12-29T09:58:42;6.13;;;5.63;;
8102;SDS011;4094;49.948;11.574;2022-12-29T10:01:21;7.77;;;7.17;;
8102;SDS011;4094;49.948;11.574;2022-12-29T10:03:56;7.40;;;6.80;;
8102;SDS011;4094;49.948;11.574;2022-12-29T10:06:30;7.80;;;7.10;;
8102;SDS011;4094;49.948;11.574;2022-12-29T10:09:25;6.73;;;6.13;;
8102;SDS011;4094;49.948;11.574;2022-12-29T10:12:06;6.37;;;5.90;;
8102;SDS011;4094;49.948;11.574;2022-12-29T10:14:47;6.20;;;5.80;;
8102;SDS011;4094;49.948;11.574;2022-12-29T10:17:27;6.20;;;5.80;;
8102;SDS011;4094;49.948;11.574;2022-12-29T10:20:10;6.40;;;6.00;;
8102;SDS011;4094;49.948;11.574;2022-12-29T10:22:53;6.03;;;5.47;;
8102;SDS011;4094;49.948;11.574;2022-12-29T10:25:37;5.80;;;5.40;;
8102;SDS011;4094;49.948;11.574;2022-12-29T10:28:10;6.40;;;5.87;;
8102;SDS011;4094;49.948;11.574;2022-12-29T10:30:46;5.77;;;5.47;;
8102;SDS011;4094;49.948;11.574;2022-12-29T10:33:17;6.27;;;5.77;;
8102;SDS011;4094;49.948;11.574;2022-12-29T10:35:51;5.97;;;5.67;;
8102;SDS011;4094;49.948;11.574;2022-12-29T10:38:23;5.83;;;5.50;;
8102;SDS011;4094;49.948;11.574;2022-12-29T10:40:57;5.97;;;5.47;;
8102;SDS011;4094;49.948;11.574;2022-12-29T10:43:29;6.17;;;5.77;;
8102;SDS011;4094;49.948;11.574;2022-12-29T10:46:04;5.60;;;5.30;;
8102;SDS011;4094;49.948;11.574;2022-12-29T10:48:39;5.53;;;5.10;;
8102;SDS011;4094;49.948;11.574;2022-12-29T10:51:15;5.67;;;5.27;;
8102;SDS011;4094;49.948;11.574;2022-12-29T10:53:51;5.33;;;4.93;;
8102;SDS011;4094;49.948;11.574;2022-12-29T10:56:27;5.60;;;5.20;;
8102;SDS011;4094;49.948;11.574;2022-12-29T10:59:03;4.90;;;4.60;;
8102;SDS011;4094;49.948;11.574;2022-12-29T11:01:40;4.93;;;4.60;;
8102;SDS011;4094;49.948;11.574;2022-12-29T11:04:28;4.90;;;4.50;;
8102;SDS011;4094;49.948;11.574;2022-12-29T11:07:04;5.27;;;4.87;;
8102;SDS011;4094;49.948;11.574;2022-12-29T11:09:43;5.17;;;4.77;;
8102;SDS011;4094;49.948;11.574;2022-12-29T11:12:18;4.80;;;4.47;;
8102;SDS011;4094;49.948;11.574;2022-12-29T11:15:00;5.00;;;4.70;;
8102;SDS011;4094;49.948;11.574;2022-12-29T11:17:43;4.67;;;4.37;;
8102;SDS011;4094;49.948;11.574;2022-12-29T11:23:05;4.50;;;4.23;;
8102;SDS011;4094;49.948;11.574;2022-12-29T11:28:46;4.77;;;4.47;;
8102;SDS011;4094;49.948;11.574;2022-12-29T11:31:33;4.70;;;4.40;;
8102;SDS011;4094;49.948;11.574;2022-12-29T11:34:15;5.10;;;4.70;;
8102;SDS011;4094;49.948;11.574;2022-12-29T11:36:46;4.67;;;4.37;;
8102;SDS011;4094;49.948;11.574;2022-12-29T11:39:23;4.93;;;4.53;;
8102;SDS011;4094;49.948;11.574;2022-12-29T11:42:00;5.43;;;5.10;;
8102;SDS011;4094;49.948;11.574;2022-12-29T11:44:35;5.53;;;5.13;;
8102;SDS011;4094;49.948;11.574;2022-12-29T11:47:07;5.63;;;5.13;;
8102;SDS011;4094;49.948;11.574;2022-12-29T11:49:43;5.00;;;4.70;;
8102;SDS011;4094;49.948;11.574;2022-12-29T11:52:20;5.10;;;4.80;;
8102;SDS011;4094;49.948;11.574;2022-12-29T11:54:52;5.50;;;5.10;;
8102;SDS011;4094;49.948;11.574;2022-12-29T11:57:24;5.20;;;4.87;;
8102;SDS011;4094;49.948;11.574;2022-12-29T11:59:54;5.70;;;5.40;;
8102;SDS011;4094;49.948;11.574;2022-12-29T12:02:26;5.43;;;5.13;;
8102;SDS011;4094;49.948;11.574;2022-12-29T12:05:10;6.77;;;5.23;;
8102;SDS011;4094;49.948;11.574;2022-12-29T12:07:44;5.17;;;4.77;;
8102;SDS011;4094;49.948;11.574;2022-12-29T12:10:25;5.47;;;5.07;;
8102;SDS011;4094;49.948;11.574;2022-12-29T12:13:02;5.43;;;5.10;;
8102;SDS011;4094;49.948;11.574;2022-12-29T12:15:39;5.03;;;4.73;;
8102;SDS011;4094;49.948;11.574;2022-12-29T12:18:28;5.57;;;4.93;;
8102;SDS011;4094;49.948;11.574;2022-12-29T12:21:05;5.20;;;4.83;;
8102;SDS011;4094;49.948;11.574;2022-12-29T12:23:44;5.57;;;4.97;;
8102;SDS011;4094;49.948;11.574;2022-12-29T12:26:28;5.87;;;5.27;;
8102;SDS011;4094;49.948;11.574;2022-12-29T12:29:08;5.73;;;5.33;;
8102;SDS011;4094;49.948;11.574;2022-12-29T12:31:43;5.60;;;5.30;;
8102;SDS011;4094;49.948;11.574;2022-12-29T12:34:17;5.67;;;5.07;;
8102;SDS011;4094;49.948;11.574;2022-12-29T12:36:54;5.30;;;5.00;;
8102;SDS011;4094;49.948;11.574;2022-12-29T12:39:36;5.30;;;4.97;;
8102;SDS011;4094;49.948;11.574;2022-12-29T12:42:20;6.43;;;5.90;;
8102;SDS011;4094;49.948;11.574;2022-12-29T12:45:04;5.37;;;5.07;;
8102;SDS011;4094;49.948;11.574;2022-12-29T12:47:53;5.40;;;5.10;;
8102;SDS011;4094;49.948;11.574;2022-12-29T12:50:43;5.10;;;4.80;;
8102;SDS011;4094;49.948;11.574;2022-12-29T12:53:33;5.93;;;5.47;;
8102;SDS011;4094;49.948;11.574;2022-12-29T12:59:17;5.57;;;5.27;;
8102;SDS011;4094;49.948;11.574;2022-12-29T13:02:00;5.20;;;4.80;;
8102;SDS011;4094;49.948;11.574;2022-12-29T13:04:50;5.60;;;5.30;;
8102;SDS011;4094;49.948;11.574;2022-12-29T13:07:32;5.43;;;5.13;;
8102;SDS011;4094;49.948;11.574;2022-12-29T13:10:22;5.60;;;5.20;;
8102;SDS011;4094;49.948;11.574;2022-12-29T13:13:20;6.00;;;5.60;;
8102;SDS011;4094;49.948;11.574;2022-12-29T13:16:13;6.13;;;5.73;;
8102;SDS011;4094;49.948;11.574;2022-12-29T13:18:55;6.80;;;5.53;;
8102;SDS011;4094;49.948;11.574;2022-12-29T13:21:34;6.17;;;5.67;;
8102;SDS011;4094;49.948;11.574;2022-12-29T13:24:32;6.23;;;5.83;;
8102;SDS011;4094;49.948;11.574;2022-12-29T13:27:11;6.40;;;5.90;;
8102;SDS011;4094;49.948;11.574;2022-12-29T13:29:47;6.20;;;5.80;;
8102;SDS011;4094;49.948;11.574;2022-12-29T13:32:28;5.27;;;4.97;;
8102;SDS011;4094;49.948;11.574;2022-12-29T13:35:27;5.70;;;5.20;;
8102;SDS011;4094;49.948;11.574;2022-12-29T13:38:09;5.77;;;5.47;;
8102;SDS011;4094;49.948;11.574;2022-12-29T13:40:41;5.87;;;5.50;;
8102;SDS011;4094;49.948;11.574;2022-12-29T13:43:14;4.90;;;4.60;;
8102;SDS011;4094;49.948;11.574;2022-12-29T13:45:46;5.90;;;5.40;;
8102;SDS011;4094;49.948;11.574;2022-12-29T13:48:29;6.40;;;5.90;;
8102;SDS011;4094;49.948;11.574;2022-12-29T13:51:09;6.13;;;5.53;;
8102;SDS011;4094;49.948;11.574;2022-12-29T13:53:51;5.00;;;4.70;;
8102;SDS011;4094;49.948;11.574;2022-12-29T13:56:31;5.90;;;5.50;;
8102;SDS011;4094;49.948;11.574;2022-12-29T13:59:05;5.93;;;5.53;;
8102;SDS011;4094;49.948;11.574;2022-12-29T14:01:41;5.20;;;4.87;;
8102;SDS011;4094;49.948;11.574;2022-12-29T14:04:21;5.53;;;5.23;;
8102;SDS011;4094;49.948;11.574;2022-12-29T14:07:00;6.33;;;5.70;;
8102;SDS011;4094;49.948;11.574;2022-12-29T14:09:42;5.57;;;5.20;;
8102;SDS011;4094;49.948;11.574;2022-12-29T14:12:19;5.50;;;5.10;;
8102;SDS011;4094;49.948;11.574;2022-12-29T14:15:21;5.57;;;5.17;;
8102;SDS011;4094;49.948;11.574;2022-12-29T14:18:03;5.73;;;5.33;;
8102;SDS011;4094;49.948;11.574;2022-12-29T14:20:49;6.07;;;5.67;;
8102;SDS011;4094;49.948;11.574;2022-12-29T14:23:28;5.37;;;5.00;;
8102;SDS011;4094;49.948;11.574;2022-12-29T14:26:11;5.23;;;4.87;;
8102;SDS011;4094;49.948;11.574;2022-12-29T14:28:43;5.63;;;5.33;;
8102;SDS011;4094;49.948;11.574;2022-12-29T14:34:28;5.43;;;5.13;;
8102;SDS011;4094;49.948;11.574;2022-12-29T14:36:59;5.63;;;5.37;;
8102;SDS011;4094;49.948;11.574;2022-12-29T14:39:35;5.87;;;5.57;;
8102;SDS011;4094;49.948;11.574;2022-12-29T14:42:10;5.37;;;5.03;;
8102;SDS011;4094;49.948;11.574;2022-12-29T14:44:50;6.20;;;5.63;;
8102;SDS011;4094;49.948;11.574;2022-12-29T14:47:22;5.37;;;5.03;;
8102;SDS011;4094;49.948;11.574;2022-12-29T14:50:02;5.90;;;5.60;;
8102;SDS011;4094;49.948;11.574;2022-12-29T14:52:41;6.23;;;5.83;;
8102;SDS011;4094;49.948;11.574;2022-12-29T14:55:30;5.57;;;5.23;;
8102;SDS011;4094;49.948;11.574;2022-12-29T14:58:06;6.00;;;5.70;;
8102;SDS011;4094;49.948;11.574;2022-12-29T15:00:43;5.70;;;5.20;;
8102;SDS011;4094;49.948;11.574;2022-12-29T15:03:14;5.33;;;4.97;;
8102;SDS011;4094;49.948;11.574;2022-12-29T15:05:48;5.90;;;5.60;;
8102;SDS011;4094;49.948;11.574;2022-12-29T15:08:21;5.37;;;5.13;;
8102;SDS011;4094;49.948;11.574;2022-12-29T15:10:55;5.97;;;5.57;;
8102;SDS011;4094;49.948;11.574;2022-12-29T15:13:33;5.60;;;5.30;;
8102;SDS011;4094;49.948;11.574;2022-12-29T15:16:04;6.50;;;6.10;;
8102;SDS011;4094;49.948;11.574;2022-12-29T15:18:49;7.70;;;7.13;;
8102;SDS011;4094;49.948;11.574;2022-12-29T15:21:19;8.27;;;7.57;;
8102;SDS011;4094;49.948;11.574;2022-12-29T15:23:52;7.17;;;6.63;;
8102;SDS011;4094;49.948;11.574;2022-12-29T15:26:23;6.50;;;6.10;;
8102;SDS011;4094;49.948;11.574;2022-12-29T15:29:26;6.97;;;6.50;;
8102;SDS011;4094;49.948;11.574;2022-12-29T15:31:58;6.80;;;6.27;;
8102;SDS011;4094;49.948;11.574;2022-12-29T15:34:30;5.93;;;5.37;;
8102;SDS011;4094;49.948;11.574;2022-12-29T15:36:59;6.27;;;5.87;;
8102;SDS011;4094;49.948;11.574;2022-12-29T15:39:34;5.77;;;5.43;;
8102;SDS011;4094;49.948;11.574;2022-12-29T15:42:07;6.33;;;5.93;;
8102;SDS011;4094;49.948;11.574;2022-12-29T15:44:45;6.20;;;5.70;;
8102;SDS011;4094;49.948;11.574;2022-12-29T15:47:28;6.20;;;5.80;;
8102;SDS011;4094;49.948;11.574;2022-12-29T15:49:59;7.13;;;6.63;;
8102;SDS011;4094;49.948;11.574;2022-12-29T15:52:32;6.20;;;5.80;;
8102;SDS011;4094;49.948;11.574;2022-12-29T15:55:02;6.30;;;5.90;;
8102;SDS011;4094;49.948;11.574;2022-12-29T15:57:38;7.20;;;6.67;;
8102;SDS011;4094;49.948;11.574;2022-12-29T16:00:20;6.70;;;6.30;;
8102;SDS011;4094;49.948;11.574;2022-12-29T16:02:53;7.27;;;6.77;;
8102;SDS011;4094;49.948;11.574;2022-12-29T16:05:22;7.30;;;6.80;;
8102;SDS011;4094;49.948;11.574;2022-12-29T16:07:53;9.67;;;8.87;;